Time;durP1;ratioP1;P1;durP2;ratioP2;P2;SDS_P1;SDS_P2;PMS_P1;PMS_P2;Temp;Humidity;BMP_temperature;BMP_pressure;BME280_temperature;BME280_humidity;BME280_pressure;Samples;Min_cycle;Max_cycle;Signal;HPM_P1;HPM_P2
2021/12/31 00:01:13;;;;;;;4.93;2.03;;;13.10;99.90;;;13.98;100.00;100763.56;5061774;28;20029;-88
2021/12/31 00:03:39;;;;;;;6.20;2.30;;;13.20;99.90;;;14.05;100.00;100760.88;5064250;28;20039;-87
2021/12/31 00:06:06;;;;;;;6.68;2.08;;;13.20;99.90;;;14.04;100.00;100762.88;5062101;28;20037;-85
2021/12/31 00:08:33;;;;;;;5.30;2.33;;;13.20;99.90;;;14.03;100.00;100763.25;5061150;28;20025;-86
2021/12/31 00:10:59;;;;;;;3.47;1.65;;;13.20;99.90;;;14.08;100.00;100760.13;5060480;28;20029;-85
2021/12/31 00:13:30;;;;;;;7.40;2.20;;;13.20;99.90;;;14.10;100.00;100766.16;5077862;28;20460;-84
2021/12/31 00:15:56;;;;;;;3.53;1.80;;;13.20;99.90;;;14.13;100.00;100763.41;5060834;28;20032;-86
2021/12/31 00:18:22;;;;;;;5.35;2.15;;;13.20;99.90;;;14.14;100.00;100755.78;5060957;28;20037;-85
2021/12/31 00:20:50;;;;;;;7.15;2.17;;;13.30;99.90;;;14.22;100.00;100761.09;5060480;28;20043;-87
2021/12/31 00:23:20;;;;;;;5.10;1.92;;;13.30;99.90;;;14.16;100.00;100756.19;5062603;28;20029;-85
2021/12/31 00:25:46;;;;;;;4.85;1.67;;;13.30;99.90;;;14.19;100.00;100750.63;5060342;28;20025;-85
2021/12/31 00:28:12;;;;;;;6.32;2.20;;;13.40;99.90;;;14.19;100.00;100741.41;5060232;28;20028;-85
2021/12/31 00:30:40;;;;;;;6.43;2.33;;;13.50;99.90;;;14.27;100.00;100743.94;5076370;28;20040;-85
2021/12/31 00:33:08;;;;;;;3.53;1.70;;;13.50;99.90;;;14.28;100.00;100750.38;5060597;28;20025;-83
2021/12/31 00:35:37;;;;;;;6.95;1.85;;;13.50;99.90;;;14.28;100.00;100758.81;5074993;28;20067;-87
2021/12/31 00:38:05;;;;;;;4.85;1.70;;;13.50;99.90;;;14.30;100.00;100756.41;5075271;28;20025;-85
2021/12/31 00:40:31;;;;;;;6.60;2.00;;;13.50;99.90;;;14.32;100.00;100750.44;5058026;28;20048;-86
2021/12/31 00:42:57;;;;;;;4.15;1.75;;;13.50;99.90;;;14.34;100.00;100742.44;5059003;28;20021;-85
2021/12/31 00:45:24;;;;;;;2.35;1.50;;;13.50;99.90;;;14.41;100.00;100753.78;5074196;28;20080;-84
2021/12/31 00:47:52;;;;;;;7.65;1.98;;;13.50;99.90;;;14.30;100.00;100752.78;5074199;28;20052;-84
2021/12/31 00:50:20;;;;;;;7.43;2.00;;;13.50;99.90;;;14.32;100.00;100756.81;5074243;28;20435;-87
2021/12/31 00:52:46;;;;;;;6.43;1.77;;;13.50;99.90;;;14.39;100.00;100748.53;5074088;28;20193;-85
2021/12/31 00:55:14;;;;;;;6.05;2.03;;;13.50;99.90;;;14.40;100.00;100744.53;5057249;28;20025;-86
2021/12/31 00:57:41;;;;;;;8.45;1.92;;;13.60;99.90;;;14.37;100.00;100744.50;5073862;28;20059;-84
2021/12/31 01:00:12;;;;;;;7.47;2.60;;;13.60;99.90;;;14.41;100.00;100763.03;5073476;28;20114;-84
2021/12/31 01:02:39;;;;;;;6.18;2.08;;;13.60;99.90;;;14.46;100.00;100748.63;5073262;28;20117;-84
2021/12/31 01:05:06;;;;;;;5.60;1.83;;;13.60;99.90;;;14.49;100.00;100755.47;5073252;28;20074;-86
2021/12/31 01:07:32;;;;;;;5.85;1.55;;;13.70;99.90;;;14.54;100.00;100766.41;5058178;28;20033;-84
2021/12/31 01:10:00;;;;;;;4.20;1.33;;;13.70;99.90;;;14.54;100.00;100769.22;5056163;28;20029;-85
2021/12/31 01:12:26;;;;;;;7.82;2.03;;;13.70;99.90;;;14.51;100.00;100767.16;5056340;28;20025;-85
2021/12/31 01:15:20;;;;;;;5.38;1.55;;;13.70;99.90;;;14.51;100.00;100758.75;5058028;28;20375;-84
2021/12/31 01:20:17;;;;;;;2.92;1.42;;;13.70;99.90;;;14.46;100.00;100762.69;5058771;28;20029;-85
2021/12/31 01:22:43;;;;;;;4.60;1.70;;;13.60;99.90;;;14.53;100.00;100782.44;5074567;28;20029;-85
2021/12/31 01:25:10;;;;;;;3.50;1.55;;;13.60;99.90;;;14.55;100.00;100763.19;5073622;28;20029;-85
2021/12/31 01:27:42;;;;;;;3.70;1.60;;;13.70;99.90;;;14.60;100.00;100759.25;5059646;28;20037;-85
2021/12/31 01:30:14;;;;;;;5.63;1.40;;;13.70;99.90;;;14.60;100.00;100767.69;5062644;28;20035;-84
2021/12/31 01:32:43;;;;;;;5.47;1.48;;;13.80;99.90;;;14.69;100.00;100777.44;5061246;28;20362;-84
2021/12/31 01:35:10;;;;;;;4.53;1.52;;;13.80;99.90;;;14.68;100.00;100761.75;5056292;28;20064;-86
2021/12/31 01:37:36;;;;;;;6.55;1.60;;;13.80;99.90;;;14.74;100.00;100777.09;5055643;28;20029;-85
2021/12/31 01:40:04;;;;;;;4.70;1.40;;;13.90;99.90;;;14.84;100.00;100774.78;5073168;28;20029;-85
2021/12/31 01:42:33;;;;;;;5.05;1.60;;;13.90;99.90;;;14.76;100.00;100766.28;5073318;28;20047;-85
2021/12/31 01:45:17;;;;;;;7.03;1.33;;;14.00;99.90;;;14.74;100.00;100765.84;5055222;28;20025;-84
2021/12/31 01:48:04;;;;;;;4.90;1.20;;;13.90;99.90;;;14.74;100.00;100767.84;5071696;28;20029;-85
2021/12/31 01:50:30;;;;;;;3.85;1.40;;;13.90;99.90;;;14.98;100.00;100769.31;5056247;28;20477;-86
2021/12/31 01:52:58;;;;;;;6.75;1.70;;;13.90;99.90;;;15.05;100.00;100769.41;5071805;28;20029;-88
2021/12/31 01:55:31;;;;;;;4.95;1.25;;;13.90;99.90;;;15.01;100.00;100768.56;5071640;28;20028;-84
2021/12/31 01:58:00;;;;;;;5.95;1.90;;;13.90;99.90;;;14.96;100.00;100769.69;5054319;28;20037;-85
2021/12/31 02:00:28;;;;;;;7.05;1.30;;;13.90;99.90;;;15.01;100.00;100777.81;5071121;28;20438;-83
2021/12/31 02:02:57;;;;;;;6.13;1.52;;;13.90;99.90;;;14.91;100.00;100772.88;5071609;28;20105;-84
2021/12/31 02:05:23;;;;;;;3.05;1.30;;;13.90;99.90;;;15.04;100.00;100777.03;5071501;28;20388;-84
2021/12/31 02:07:49;;;;;;;4.55;1.60;;;13.90;99.90;;;14.92;100.00;100771.69;5056717;28;20044;-86
2021/12/31 02:10:15;;;;;;;3.58;1.35;;;13.90;99.90;;;15.01;100.00;100789.06;5056803;28;20032;-87
2021/12/31 02:12:46;;;;;;;4.72;1.55;;;13.90;99.90;;;15.06;100.00;100782.25;5079927;28;20500;-86
2021/12/31 02:15:18;;;;;;;6.40;1.52;;;13.90;99.90;;;15.11;100.00;100774.31;5082763;28;20029;-85
2021/12/31 02:17:47;;;;;;;5.20;1.52;;;13.90;99.90;;;15.09;100.00;100773.88;5073998;28;20032;-84
2021/12/31 02:20:16;;;;;;;4.80;1.58;;;14.00;99.90;;;15.15;100.00;100772.34;5071525;28;20033;-86
2021/12/31 02:22:50;;;;;;;8.00;1.90;;;14.00;99.90;;;15.11;99.74;100768.69;5055895;28;20043;-85
2021/12/31 02:25:18;;;;;;;6.10;1.80;;;14.00;99.90;;;15.15;99.49;100772.34;5056850;28;20029;-83
2021/12/31 02:27:44;;;;;;;3.40;1.50;;;14.00;99.90;;;15.11;98.97;100770.69;5056698;28;20029;-84
2021/12/31 02:30:11;;;;;;;4.78;1.38;;;14.00;99.90;;;15.21;98.66;100784.06;5073037;28;20090;-84
2021/12/31 02:32:38;;;;;;;4.93;1.42;;;14.00;99.90;;;15.23;98.88;100785.28;5054797;28;20048;-84
2021/12/31 02:35:09;;;;;;;3.67;1.48;;;14.00;99.90;;;15.21;98.72;100792.50;5055143;28;20029;-83
2021/12/31 02:37:38;;;;;;;3.22;1.20;;;13.90;99.90;;;15.05;98.97;100787.09;5054882;28;20033;-84
2021/12/31 02:40:11;;;;;;;3.15;1.30;;;14.00;99.90;;;15.14;98.62;100776.34;5054638;28;20078;-84
2021/12/31 02:42:38;;;;;;;4.55;1.50;;;14.00;99.90;;;15.18;98.03;100784.81;5054901;28;20078;-84
2021/12/31 02:45:08;;;;;;;3.28;1.45;;;14.00;99.90;;;15.13;98.22;100774.72;5071969;28;20032;-85
2021/12/31 02:47:35;;;;;;;5.05;1.70;;;14.00;99.90;;;15.18;98.06;100774.38;5053784;28;20419;-83
2021/12/31 02:50:05;;;;;;;4.53;1.35;;;14.00;99.90;;;15.18;98.40;100767.94;5070334;28;20151;-84
2021/12/31 02:52:32;;;;;;;5.65;1.33;;;14.00;99.90;;;15.23;97.62;100785.28;5054483;28;20397;-85
2021/12/31 02:55:02;;;;;;;4.57;1.50;;;14.00;99.90;;;15.25;97.83;100777.25;5054556;28;20025;-85
2021/12/31 02:57:28;;;;;;;3.75;1.30;;;14.00;99.90;;;15.10;97.87;100772.69;5055066;28;20054;-83
2021/12/31 02:59:54;;;;;;;4.60;1.20;;;14.00;99.90;;;15.18;97.80;100767.94;5070098;28;20036;-84
2021/12/31 03:02:24;;;;;;;2.08;1.10;;;14.00;99.90;;;15.16;97.89;100767.50;5072039;28;20085;-81
2021/12/31 03:04:53;;;;;;;3.25;1.35;;;14.00;99.90;;;15.06;97.80;100769.00;5061242;28;20116;-83
2021/12/31 03:07:23;;;;;;;1.98;1.50;;;13.90;99.90;;;15.23;97.37;100759.97;5071050;28;20476;-84
2021/12/31 03:09:52;;;;;;;3.03;1.30;;;14.00;99.90;;;15.18;97.24;100770.75;5054393;28;20036;-85
2021/12/31 03:12:18;;;;;;;6.00;1.25;;;14.00;99.90;;;15.19;96.66;100761.91;5053896;28;20060;-85
2021/12/31 03:14:49;;;;;;;3.75;1.17;;;14.00;99.90;;;15.21;96.88;100764.34;5053664;28;20032;-85
2021/12/31 03:17:18;;;;;;;3.05;1.52;;;14.00;99.90;;;15.16;96.93;100768.31;5054023;28;20057;-86
2021/12/31 03:19:44;;;;;;;3.55;1.27;;;14.00;99.90;;;15.20;97.11;100769.16;5070527;28;20047;-85
2021/12/31 03:22:11;;;;;;;2.65;1.10;;;14.00;99.90;;;15.23;97.02;100767.59;5070762;28;20099;-84
2021/12/31 03:24:39;;;;;;;5.55;1.65;;;14.00;99.90;;;15.14;96.73;100772.72;5054433;28;20438;-85
2021/12/31 03:27:05;;;;;;;4.80;1.48;;;13.90;99.90;;;15.19;96.60;100767.53;5058740;28;20060;-84
2021/12/31 03:29:33;;;;;;;5.90;1.88;;;14.00;99.90;;;15.17;96.63;100778.38;5058249;28;20024;-86
2021/12/31 03:31:59;;;;;;;2.33;1.42;;;14.00;99.90;;;15.20;95.97;100765.53;5074418;28;20056;-83
2021/12/31 03:34:24;;;;;;;2.80;1.20;;;14.00;99.90;;;15.23;95.74;100761.97;5058374;28;20027;-83
2021/12/31 03:36:50;;;;;;;4.05;1.38;;;14.00;99.90;;;15.25;95.20;100770.84;5058659;28;20028;-84
2021/12/31 03:39:16;;;;;;;3.78;1.15;;;14.00;99.90;;;15.27;94.76;100765.63;5074839;28;20044;-84
2021/12/31 03:41:44;;;;;;;3.13;1.17;;;14.10;99.90;;;15.34;94.64;100762.06;5075093;28;20048;-84
2021/12/31 03:44:10;;;;;;;3.30;1.25;;;14.10;99.90;;;15.34;94.68;100762.88;5057302;28;20044;-84
2021/12/31 03:46:36;;;;;;;7.65;1.27;;;14.00;99.90;;;15.22;94.90;100763.13;5057447;28;20033;-83
2021/12/31 03:49:02;;;;;;;1.85;0.90;;;14.10;99.90;;;15.25;94.61;100759.59;5058308;28;20079;-83
2021/12/31 03:51:28;;;;;;;2.15;1.00;;;14.10;99.90;;;15.21;94.30;100758.72;5057500;28;20033;-84
2021/12/31 03:53:54;;;;;;;2.28;1.15;;;14.00;99.90;;;15.24;94.10;100750.31;5058241;28;20033;-84
2021/12/31 03:56:22;;;;;;;5.90;1.40;;;14.00;99.90;;;15.34;93.53;100757.25;5058442;28;20039;-84
2021/12/31 03:58:49;;;;;;;2.50;1.23;;;14.00;99.90;;;15.35;93.54;100758.84;5057865;28;20044;-83
2021/12/31 04:01:15;;;;;;;3.33;1.10;;;14.10;99.90;;;15.35;93.61;100763.69;5057737;28;20044;-83
2021/12/31 04:03:41;;;;;;;3.53;1.38;;;14.00;99.90;;;15.26;93.96;100755.56;5074521;28;20029;-85
2021/12/31 04:06:07;;;;;;;2.15;0.98;;;14.00;99.90;;;15.32;93.75;100749.19;5057688;28;20033;-83
2021/12/31 04:08:34;;;;;;;6.07;1.40;;;14.00;99.90;;;15.31;93.70;100746.78;5056869;28;20088;-86
2021/12/31 04:10:59;;;;;;;1.67;1.10;;;14.00;99.90;;;15.31;93.85;100741.16;5057925;28;20453;-85
2021/12/31 04:13:25;;;;;;;3.95;0.90;;;14.00;99.90;;;15.31;94.01;100746.78;5057660;28;20083;-83
2021/12/31 04:15:51;;;;;;;5.57;1.30;;;14.00;99.90;;;15.12;93.93;100753.41;5056429;28;20033;-83
2021/12/31 04:18:17;;;;;;;1.83;0.80;;;14.00;99.90;;;15.30;93.92;100745.16;5055742;28;20469;-85
2021/12/31 04:20:45;;;;;;;4.35;1.20;;;14.00;99.90;;;15.20;93.90;100743.84;5057953;28;20033;-85
2021/12/31 04:23:37;;;;;;;5.07;1.30;;;14.00;99.90;;;15.26;93.52;100747.91;5056954;28;20090;-86
2021/12/31 04:26:02;;;;;;;2.58;1.23;;;14.00;99.90;;;15.32;93.57;100757.63;5057870;28;20509;-85
2021/12/31 04:28:29;;;;;;;1.80;1.20;;;14.10;99.90;;;15.25;93.53;100743.47;5058743;28;20029;-84
2021/12/31 04:30:57;;;;;;;3.10;1.20;;;14.00;99.90;;;15.20;94.02;100746.66;5058984;28;20036;-86
2021/12/31 04:33:23;;;;;;;2.72;1.10;;;14.00;99.90;;;15.17;94.25;100753.06;5068201;28;20049;-86
2021/12/31 04:35:49;;;;;;;4.82;1.05;;;14.00;99.90;;;15.22;93.54;100730.19;5060802;28;20025;-83
2021/12/31 04:38:15;;;;;;;5.10;1.13;;;14.00;99.90;;;15.15;94.09;100729.34;5072007;28;20094;-83
2021/12/31 04:40:41;;;;;;;3.03;0.88;;;14.10;99.90;;;15.17;93.92;100729.75;5056454;28;20075;-82
2021/12/31 04:43:08;;;;;;;4.13;1.35;;;14.00;99.90;;;15.13;93.97;100729.69;5056403;28;20049;-86
2021/12/31 04:45:34;;;;;;;2.60;0.85;;;14.00;99.90;;;15.20;93.42;100732.59;5071690;28;20025;-84
2021/12/31 04:48:01;;;;;;;4.45;1.15;;;14.00;99.90;;;15.27;92.77;100720.59;5055471;28;20029;-83
2021/12/31 04:50:27;;;;;;;6.00;1.00;;;14.00;99.90;;;15.26;93.33;100730.22;5056260;28;20069;-83
2021/12/31 04:52:53;;;;;;;6.32;1.38;;;14.00;99.90;;;15.25;92.83;100731.44;5055895;28;20623;-85
2021/12/31 04:55:19;;;;;;;5.55;1.35;;;13.90;99.90;;;15.18;93.70;100735.00;5056837;28;20492;-85
2021/12/31 04:57:48;;;;;;;4.05;1.20;;;13.90;99.90;;;15.23;92.98;100736.63;5072579;28;20032;-83
2021/12/31 05:00:16;;;;;;;3.50;0.95;;;14.00;99.90;;;15.22;93.01;100732.19;5055963;28;20037;-86
2021/12/31 05:02:43;;;;;;;3.78;1.10;;;13.90;99.90;;;15.22;92.24;100727.38;5058404;28;20032;-85
2021/12/31 05:05:11;;;;;;;3.60;1.20;;;13.90;99.90;;;15.21;92.68;100725.78;5073509;28;20102;-86
2021/12/31 05:07:37;;;;;;;4.07;1.23;;;13.90;99.90;;;15.21;92.49;100730.59;5057544;28;20032;-83
2021/12/31 05:10:04;;;;;;;2.63;1.05;;;14.00;99.90;;;15.21;92.77;100728.59;5055999;28;20499;-83
2021/12/31 05:12:33;;;;;;;2.13;0.80;;;13.90;99.90;;;15.21;92.20;100722.97;5056311;28;20040;-85
2021/12/31 05:15:01;;;;;;;7.45;1.52;;;13.90;99.90;;;15.18;92.42;100723.75;5056216;28;20059;-83
2021/12/31 05:17:27;;;;;;;4.35;1.30;;;13.90;99.90;;;15.25;91.96;100732.22;5056035;28;20116;-83
2021/12/31 05:19:53;;;;;;;2.35;0.85;;;14.00;99.90;;;15.18;92.70;100735.00;5055547;28;20037;-84
2021/12/31 05:22:19;;;;;;;2.83;1.23;;;14.00;99.90;;;15.12;92.59;100721.66;5055930;28;20036;-83
2021/12/31 05:24:45;;;;;;;3.53;1.27;;;14.00;99.90;;;15.12;92.73;100716.81;5072887;28;20065;-84
2021/12/31 05:27:10;;;;;;;3.20;1.20;;;14.00;99.90;;;15.15;92.95;100716.09;5055770;28;20033;-84
2021/12/31 05:29:37;;;;;;;4.38;1.10;;;13.90;99.90;;;15.13;93.54;100724.09;5057182;28;20021;-84
2021/12/31 05:32:04;;;;;;;1.75;0.70;;;13.90;99.90;;;15.14;93.18;100722.09;5055516;28;20469;-84
2021/12/31 05:34:31;;;;;;;3.92;1.00;;;13.80;99.90;;;15.06;93.57;100734.44;5056728;28;20052;-83
2021/12/31 05:36:58;;;;;;;2.95;1.05;;;13.90;99.90;;;15.01;93.47;100724.38;5056170;28;20032;-84
2021/12/31 05:39:25;;;;;;;6.95;1.20;;;13.90;99.90;;;15.15;93.32;100729.34;5055321;28;20036;-84
2021/12/31 05:41:52;;;;;;;4.28;1.25;;;13.90;99.90;;;15.11;93.55;100712.41;5057257;28;20021;-84
2021/12/31 05:44:19;;;;;;;1.85;0.98;;;13.90;99.90;;;15.01;93.56;100717.94;5054918;28;20182;-83
2021/12/31 05:46:48;;;;;;;7.28;1.00;;;13.90;99.90;;;14.81;94.49;100708.06;5056247;28;20453;-84
2021/12/31 05:49:15;;;;;;;3.13;1.00;;;13.80;99.90;;;14.61;95.58;100701.81;5056583;28;20021;-83
2021/12/31 05:51:42;;;;;;;4.18;0.93;;;13.80;99.90;;;14.63;95.71;100696.63;5072844;28;20307;-84
2021/12/31 05:54:08;;;;;;;2.65;1.08;;;13.80;99.90;;;14.80;95.12;100690.41;5056959;28;20028;-83
2021/12/31 05:56:34;;;;;;;2.45;0.98;;;13.80;99.90;;;14.92;94.03;100706.19;5054851;28;20035;-85
2021/12/31 05:59:00;;;;;;;3.65;1.10;;;13.80;99.90;;;14.94;94.18;100700.97;5054235;28;20043;-83
2021/12/31 06:01:25;;;;;;;2.05;0.95;;;13.80;99.90;;;15.04;93.37;100709.53;5054760;28;20040;-84
2021/12/31 06:03:51;;;;;;;3.97;0.95;;;13.90;99.90;;;14.85;94.42;100692.84;5057707;28;20040;-82
2021/12/31 06:06:17;;;;;;;2.05;0.80;;;13.90;99.90;;;14.80;94.57;100698.84;5072141;28;20040;-84
2021/12/31 06:08:43;;;;;;;2.17;0.90;;;13.90;99.90;;;14.82;94.85;100692.81;5056080;28;20056;-83
2021/12/31 06:11:09;;;;;;;3.65;0.95;;;13.90;99.90;;;14.78;95.12;100690.78;5054294;28;20025;-84
2021/12/31 06:13:37;;;;;;;3.40;1.00;;;13.90;99.90;;;14.73;94.97;100681.91;5070752;28;20032;-84
2021/12/31 06:16:06;;;;;;;4.20;1.13;;;13.80;99.90;;;14.70;95.40;100685.47;5054849;28;20489;-83
2021/12/31 06:18:32;;;;;;;2.60;1.10;;;13.80;99.90;;;14.67;95.13;100687.03;5055309;28;20029;-85
2021/12/31 06:21:01;;;;;;;2.70;1.00;;;13.80;99.90;;;14.64;95.00;100672.97;5054578;28;20041;-86
2021/12/31 06:23:27;;;;;;;2.08;0.80;;;13.80;99.90;;;14.62;95.09;100684.59;5071132;28;20559;-82
2021/12/31 06:25:53;;;;;;;2.97;1.05;;;13.80;99.90;;;14.61;95.50;100690.56;5054294;28;20061;-82
2021/12/31 06:28:19;;;;;;;2.60;1.08;;;13.70;99.90;;;14.71;95.34;100695.50;5070967;28;20033;-82
2021/12/31 06:30:47;;;;;;;2.90;1.02;;;13.70;99.90;;;14.72;95.14;100697.94;5071153;28;20032;-83
2021/12/31 06:33:14;;;;;;;4.72;1.10;;;13.70;99.90;;;14.81;94.88;100716.50;5070568;28;20035;-82
2021/12/31 06:35:42;;;;;;;2.58;1.20;;;13.70;99.90;;;14.83;94.93;100714.94;5070849;28;20397;-83
2021/12/31 06:38:11;;;;;;;1.70;0.98;;;13.70;99.90;;;14.73;94.88;100716.44;5055374;28;20039;-82
2021/12/31 06:40:38;;;;;;;4.53;0.90;;;13.70;99.90;;;14.81;94.49;100714.50;5054749;28;20543;-84
2021/12/31 06:43:04;;;;;;;3.47;1.02;;;13.70;99.90;;;14.74;94.88;100720.03;5054593;28;20430;-82
2021/12/31 06:45:30;;;;;;;1.52;0.93;;;13.70;99.90;;;14.81;94.74;100717.31;5071097;28;20053;-84
2021/12/31 06:47:56;;;;;;;5.05;1.30;;;13.70;99.90;;;14.78;94.72;100713.28;5056811;28;20082;-84
2021/12/31 06:50:23;;;;;;;2.17;0.77;;;13.70;99.90;;;14.70;95.37;100705.16;5080028;28;20060;-83
2021/12/31 06:52:48;;;;;;;3.63;1.45;;;13.60;99.90;;;14.68;95.74;100710.34;5073458;28;20057;-82
2021/12/31 06:55:15;;;;;;;7.68;1.42;;;13.60;99.90;;;14.67;95.62;100703.13;5072758;28;20032;-83
2021/12/31 06:57:41;;;;;;;4.10;1.17;;;13.60;99.90;;;14.58;96.30;100692.16;5056209;28;20029;-82
2021/12/31 07:00:09;;;;;;;2.88;1.20;;;13.50;99.90;;;14.41;97.62;100686.34;5055210;28;20067;-85
2021/12/31 07:02:35;;;;;;;3.92;0.98;;;13.40;99.90;;;14.27;98.08;100684.13;5054217;28;20025;-84
2021/12/31 07:05:01;;;;;;;2.70;0.90;;;13.30;99.90;;;14.35;98.15;100687.88;5071195;28;20032;-84
2021/12/31 07:07:27;;;;;;;3.03;1.52;;;13.30;99.90;;;14.22;98.70;100699.31;5055890;28;20399;-84
2021/12/31 07:09:56;;;;;;;5.03;1.50;;;13.20;99.90;;;14.15;99.43;100685.19;5075600;28;20071;-87
2021/12/31 07:12:23;;;;;;;2.53;1.25;;;13.20;99.90;;;14.15;99.32;100685.19;5080201;28;20036;-86
2021/12/31 07:14:52;;;;;;;3.88;1.05;;;13.20;99.90;;;14.08;100.00;100684.28;5080749;28;20033;-84
2021/12/31 07:17:21;;;;;;;2.00;1.13;;;13.10;99.90;;;14.09;99.84;100680.28;5080473;28;20044;-86
2021/12/31 07:19:59;;;;;;;4.20;1.13;;;13.10;99.90;;;14.08;100.00;100693.53;5081471;28;20048;-84
2021/12/31 07:22:28;;;;;;;2.67;1.20;;;13.10;99.90;;;14.18;99.86;100683.63;5078331;28;20029;-82
2021/12/31 07:24:55;;;;;;;3.38;1.17;;;13.10;99.90;;;14.25;99.49;100704.16;5062896;28;20043;-86
2021/12/31 07:27:25;;;;;;;4.78;1.30;;;13.20;99.90;;;14.25;99.40;100692.94;5078923;28;20060;-84
2021/12/31 07:29:51;;;;;;;2.55;1.15;;;13.10;99.90;;;14.17;99.68;100693.22;5062297;28;20028;-84
2021/12/31 07:32:18;;;;;;;4.68;1.23;;;13.10;99.90;;;14.24;99.84;100702.56;5061747;28;20040;-84
2021/12/31 07:34:46;;;;;;;2.50;1.38;;;13.10;99.90;;;14.23;99.52;100702.94;5078662;28;20029;-84
2021/12/31 07:37:12;;;;;;;4.95;1.42;;;13.10;99.90;;;14.18;99.98;100701.28;5077896;28;20025;-85
2021/12/31 07:39:46;;;;;;;3.30;1.55;;;13.10;99.90;;;14.12;100.00;100696.38;5078128;28;20037;-84
2021/12/31 07:42:15;;;;;;;3.25;1.30;;;13.10;99.90;;;14.14;100.00;100706.03;5078651;28;20062;-83
2021/12/31 07:44:42;;;;;;;6.90;1.35;;;13.10;99.90;;;14.21;99.53;100700.53;5060094;28;20059;-84
2021/12/31 07:47:08;;;;;;;3.08;1.30;;;13.20;99.90;;;14.22;99.20;100690.09;5074640;28;20079;-83
2021/12/31 07:49:34;;;;;;;3.30;1.30;;;13.20;99.90;;;14.20;99.43;100689.66;5066993;28;20045;-85
2021/12/31 07:52:00;;;;;;;2.58;1.33;;;13.10;99.90;;;14.07;100.00;100689.09;5084677;28;20033;-84
2021/12/31 07:54:26;;;;;;;4.05;1.23;;;13.00;99.90;;;14.02;100.00;100689.44;5066131;28;20029;-84
2021/12/31 07:56:52;;;;;;;1.95;1.20;;;13.10;99.90;;;13.97;100.00;100694.53;5072850;28;20115;-83
2021/12/31 07:59:18;;;;;;;3.47;1.30;;;13.00;99.90;;;14.00;100.00;100683.38;5071140;28;20036;-82
2021/12/31 08:01:44;;;;;;;4.82;1.88;;;13.00;99.90;;;13.99;100.00;100695.81;5070897;28;20174;-85
2021/12/31 08:04:09;;;;;;;3.65;1.30;;;12.90;99.90;;;13.99;100.00;100704.22;5072646;28;20443;-84
2021/12/31 08:06:35;;;;;;;3.88;1.55;;;12.90;99.90;;;14.00;100.00;100705.03;5059292;28;20370;-82
2021/12/31 08:09:02;;;;;;;6.60;1.98;;;13.00;99.90;;;14.17;100.00;100699.66;5074439;28;20032;-83
2021/12/31 08:11:28;;;;;;;2.25;1.58;;;13.10;99.90;;;14.33;98.81;100707.06;5055759;28;20033;-84
2021/12/31 08:13:54;;;;;;;3.13;1.45;;;13.10;99.90;;;14.53;97.21;100700.13;5059123;28;20052;-82
2021/12/31 08:16:20;;;;;;;7.07;1.50;;;13.30;99.90;;;14.40;97.97;100698.75;5077401;28;20025;-81
2021/12/31 08:18:45;;;;;;;5.18;1.60;;;13.30;99.90;;;14.41;97.67;100701.22;5062480;28;20031;-82
2021/12/31 08:21:11;;;;;;;3.88;1.40;;;13.40;99.90;;;14.51;97.73;100702.53;5060485;28;20040;-81
2021/12/31 08:23:37;;;;;;;4.57;1.77;;;13.40;99.90;;;14.41;97.80;100697.59;5075446;28;20033;-83
2021/12/31 08:26:05;;;;;;;1.75;1.20;;;13.50;99.90;;;14.37;97.70;100694.72;5057571;28;20064;-82
2021/12/31 08:28:31;;;;;;;6.05;1.40;;;13.50;99.90;;;14.55;97.06;100704.16;5075531;28;20393;-80
2021/12/31 08:30:58;;;;;;;3.38;1.25;;;13.50;99.90;;;14.43;97.06;100701.63;5073792;28;20025;-81
2021/12/31 08:33:26;;;;;;;3.85;1.63;;;13.30;99.90;;;14.38;97.83;100698.34;5073674;28;20420;-83
2021/12/31 08:35:55;;;;;;;3.03;1.35;;;13.30;99.90;;;14.22;98.42;100704.16;5073957;28;20056;-83
2021/12/31 08:38:23;;;;;;;2.47;1.50;;;13.20;99.90;;;14.15;98.69;100702.03;5058657;28;20052;-82
2021/12/31 08:40:49;;;;;;;4.05;1.35;;;13.20;99.90;;;14.08;99.08;100701.94;5057061;28;20174;-82
2021/12/31 08:43:15;;;;;;;3.45;1.23;;;13.10;99.90;;;14.13;99.08;100703.59;5057995;28;20108;-84
2021/12/31 08:45:41;;;;;;;4.55;1.42;;;13.10;99.90;;;13.99;99.72;100693.00;5074232;28;20021;-82
2021/12/31 08:48:07;;;;;;;6.30;2.03;;;13.00;99.90;;;14.11;99.62;100712.41;5059654;28;20061;-84
2021/12/31 08:50:34;;;;;;;2.92;1.30;;;13.00;99.90;;;14.06;99.23;100707.13;5057632;28;20025;-82
2021/12/31 08:53:01;;;;;;;4.82;1.58;;;13.20;99.90;;;14.24;98.59;100710.19;5075534;28;20108;-79
2021/12/31 08:55:28;;;;;;;4.80;1.60;;;13.20;99.90;;;14.16;99.09;100709.25;5060176;28;20499;-83
2021/12/31 08:57:56;;;;;;;2.85;1.30;;;13.10;99.90;;;14.23;98.21;100708.56;5074358;28;20037;-83
2021/12/31 09:00:22;;;;;;;4.57;1.45;;;13.20;99.90;;;14.09;98.90;100699.94;5057942;28;20499;-82
2021/12/31 09:02:50;;;;;;;4.15;1.55;;;13.20;99.90;;;14.19;98.37;100708.50;5075824;28;20040;-81
2021/12/31 09:05:18;;;;;;;3.05;1.40;;;13.20;99.90;;;14.31;97.92;100724.31;5075498;28;20031;-82
2021/12/31 09:07:45;;;;;;;3.33;1.45;;;13.30;99.90;;;14.44;96.65;100706.06;5059689;28;20025;-83
2021/12/31 09:10:11;;;;;;;3.17;1.30;;;13.30;99.90;;;14.36;96.65;100709.16;5063436;28;20040;-83
2021/12/31 09:12:38;;;;;;;3.70;1.52;;;13.40;99.90;;;14.37;96.49;100724.81;5089355;28;20025;-84
2021/12/31 09:15:06;;;;;;;3.42;1.50;;;13.40;99.90;;;14.39;96.78;100719.63;5075814;28;20346;-81
2021/12/31 09:17:33;;;;;;;3.70;1.30;;;13.40;99.90;;;14.41;96.41;100709.63;5060300;28;20029;-82
2021/12/31 09:19:59;;;;;;;3.72;1.33;;;13.30;99.90;;;14.46;96.45;100728.16;5060156;28;20391;-82
2021/12/31 09:22:25;;;;;;;2.00;1.13;;;13.40;99.90;;;14.52;95.91;100716.19;5059142;28;20025;-83
2021/12/31 09:24:51;;;;;;;1.65;1.00;;;13.40;99.90;;;14.31;96.31;100727.13;5061089;28;20394;-84
2021/12/31 09:27:19;;;;;;;4.93;1.10;;;13.40;99.90;;;14.51;95.52;100725.00;5059221;28;20033;-84
2021/12/31 09:29:55;;;;;;;4.70;1.20;;;13.50;99.90;;;14.44;95.51;100710.88;5075563;28;20060;-82
2021/12/31 09:32:23;;;;;;;3.70;1.50;;;13.50;99.90;;;14.57;94.88;100724.28;5076280;28;20115;-81
2021/12/31 09:34:49;;;;;;;4.70;1.77;;;13.50;99.90;;;14.67;94.48;100722.78;5077343;28;20033;-82
2021/12/31 09:37:18;;;;;;;5.18;1.10;;;13.50;99.90;;;14.50;95.24;100710.16;5075483;28;20036;-83
2021/12/31 09:39:45;;;;;;;5.00;1.20;;;13.50;99.90;;;14.54;95.21;100713.81;5075827;28;20032;-82
2021/12/31 09:42:11;;;;;;;4.72;1.20;;;13.50;99.90;;;14.63;94.53;100703.06;5063270;28;20262;-83
2021/12/31 09:44:38;;;;;;;3.50;1.13;;;13.50;99.90;;;14.66;94.54;100721.97;5077843;28;20033;-84
2021/12/31 09:47:09;;;;;;;5.13;1.20;;;13.50;99.90;;;14.70;94.00;100702.34;5079058;28;20031;-81
2021/12/31 09:49:39;;;;;;;3.00;1.05;;;13.60;99.90;;;14.74;92.75;100711.59;5060390;28;20111;-83
2021/12/31 09:52:13;;;;;;;2.55;1.20;;;13.70;99.90;;;14.99;92.14;100721.13;5062135;28;20032;-82
2021/12/31 09:54:48;;;;;;;1.92;0.90;;;13.80;99.90;;;15.05;90.24;100702.72;5080358;28;20033;-81
2021/12/31 09:57:21;;;;;;;2.08;1.27;;;13.90;99.90;;;15.00;91.08;100705.88;5079399;28;20040;-82
2021/12/31 09:59:48;;;;;;;2.20;1.25;;;14.00;99.90;;;15.17;90.12;100724.13;5079362;28;20466;-83
2021/12/31 10:02:27;;;;;;;3.97;0.82;;;14.00;99.90;;;15.17;89.74;100702.41;5078270;28;20033;-81
2021/12/31 10:04:57;;;;;;;1.85;0.77;;;14.10;99.90;;;15.34;88.85;100700.97;5078751;28;20039;-84
2021/12/31 10:07:24;;;;;;;1.35;0.85;;;14.10;99.90;;;15.14;88.34;100697.56;5075566;28;20029;-82
2021/12/31 10:10:15;;;;;;;0.75;0.68;;;14.10;99.90;;;15.10;89.03;100709.97;5059158;28;20032;-83
2021/12/31 10:12:56;;;;;;;1.70;0.77;;;14.10;99.90;;;14.99;89.18;100687.38;5075631;28;20033;-82
2021/12/31 10:15:26;;;;;;;4.93;1.40;;;14.10;99.90;;;15.12;89.34;100683.06;5061279;28;20032;-82